PAMR/MRI METAR and TAF weather

Enter ICAO airport designator
Station Type Date Time Source
PAMR METAR 2019/11/14 03:53 UTC NOAA

PAMR 140353Z 35007KT 10SM DZ CLR 01/M02 A2923 RMK AO2 SLP898 P0000 T00061022


Station Type Date Time Source
PAMR Decoded METAR 2019/11/14 03:53 UTC NOAA

ANCHORAGE MERRILL FIELD, AK, United States (PAMR) 61-13N 149-51W
Nov 13, 2019 - 10:53 PM EST / 2019.11.14 0353 UTC
Wind: from the N (350 degrees) at 8 MPH (7 KT):0
Visibility: 10 mile(s):0
Sky conditions: clear
Weather: drizzle
Precipitation last hour: A trace
Temperature: 33.1 F (0.6 C)
Windchill: 26 F (-3 C):1
Dew Point: 28.0 F (-2.2 C)
Relative Humidity: 81%
Pressure (altimeter): 29.23 in. Hg (989 hPa)
ob: PAMR 140353Z 35007KT 10SM DZ CLR 01/M02 A2923 RMK AO2 SLP898 P0000 T00061022
cycle: 4

Station Type Date Time Source
PAMR TAF UTC NOAA

Error!

Example: see airport list